createdAt,value
2022-11-08T00:02:04.605Z,29.98
2022-11-08T00:05:26.012Z,29.60
2022-11-08T00:08:46.314Z,29.63
2022-11-08T00:15:11.928Z,29.90
2022-11-08T00:18:15.426Z,29.95
2022-11-08T00:21:18.919Z,28.88
2022-11-08T00:24:22.223Z,29.38
2022-11-08T00:27:27.649Z,28.50
2022-11-08T00:30:30.881Z,27.90
2022-11-08T00:33:34.133Z,29.58
2022-11-08T00:36:37.463Z,28.33
2022-11-08T00:39:41.149Z,28.60
2022-11-08T00:42:45.810Z,28.75
2022-11-08T00:45:48.987Z,27.67
2022-11-08T00:48:52.348Z,27.48
2022-11-08T00:51:55.725Z,27.13
2022-11-08T00:54:58.949Z,28.20
2022-11-08T00:58:03.690Z,27.85
2022-11-08T01:01:11.835Z,27.92
2022-11-08T01:04:17.260Z,27.40
2022-11-08T01:07:20.467Z,26.92
2022-11-08T01:10:23.705Z,27.73
2022-11-08T01:13:28.492Z,28.92
2022-11-08T01:16:33.289Z,27.40
2022-11-08T01:19:36.563Z,27.67
2022-11-08T01:22:39.790Z,28.75
2022-11-08T01:25:44.286Z,27.48
2022-11-08T01:28:48.967Z,28.45
2022-11-08T01:31:52.342Z,30.20
2022-11-08T01:34:55.716Z,29.02
2022-11-08T01:37:59.185Z,30.77
2022-11-08T01:41:02.634Z,30.25
2022-11-08T01:44:07.373Z,29.67
2022-11-08T01:47:10.645Z,29.58
2022-11-08T01:50:17.338Z,29.10
2022-11-08T01:53:21.114Z,28.77
2022-11-08T01:56:24.542Z,31.00
2022-11-08T01:59:30.279Z,30.80
2022-11-08T02:02:34.782Z,29.40
2022-11-08T02:05:38.296Z,30.27
2022-11-08T02:08:43.627Z,29.52
2022-11-08T02:11:48.745Z,29.65
2022-11-08T02:14:53.519Z,29.40
2022-11-08T02:17:56.953Z,30.08
2022-11-08T02:21:07.442Z,29.42
2022-11-08T02:24:14.107Z,30.02
2022-11-08T02:27:17.400Z,30.02
2022-11-08T02:30:20.694Z,31.30
2022-11-08T02:33:24.811Z,29.15
2022-11-08T02:36:28.250Z,29.35
2022-11-08T02:39:33.023Z,28.55
2022-11-08T02:42:38.455Z,29.73
2022-11-08T02:45:41.694Z,28.23
2022-11-08T02:48:44.890Z,29.10
2022-11-08T02:51:48.371Z,28.80
2022-11-08T02:54:53.188Z,28.70
2022-11-08T02:57:56.528Z,29.63
2022-11-08T03:00:59.725Z,28.77
2022-11-08T03:04:02.955Z,27.90
2022-11-08T03:07:06.135Z,29.30
2022-11-08T03:10:11.373Z,27.60
2022-11-08T03:13:14.650Z,27.15
2022-11-08T03:16:17.976Z,28.15
2022-11-08T03:19:21.112Z,28.58
2022-11-08T03:22:24.487Z,27.10
2022-11-08T03:25:29.261Z,27.67
2022-11-08T03:28:32.763Z,26.83
2022-11-08T03:31:35.987Z,28.50
2022-11-08T03:34:39.259Z,27.38
2022-11-08T03:37:42.524Z,27.55
2022-11-08T03:40:47.457Z,28.15
2022-11-08T03:43:50.701Z,26.48
2022-11-08T03:46:53.949Z,28.00
2022-11-08T03:49:57.218Z,28.45
2022-11-08T03:53:00.649Z,29.55
2022-11-08T03:56:05.515Z,29.05
2022-11-08T03:59:09.135Z,28.70
2022-11-08T04:02:12.784Z,28.08
2022-11-08T04:05:16.692Z,28.45
2022-11-08T04:08:20.145Z,27.65
2022-11-08T04:11:45.639Z,28.58
2022-11-08T04:15:14.151Z,26.65
2022-11-08T04:18:34.807Z,28.00
2022-11-08T04:21:45.047Z,27.48
2022-11-08T04:24:53.674Z,27.25
2022-11-08T04:27:59.840Z,29.33
2022-11-08T04:31:05.477Z,27.38
2022-11-08T04:34:08.771Z,28.05
2022-11-08T04:37:12.026Z,29.20
2022-11-08T04:40:15.404Z,28.67
2022-11-08T04:43:30.750Z,29.73
2022-11-08T04:46:38.287Z,32.38
2022-11-08T04:49:44.424Z,32.67
2022-11-08T04:52:53.430Z,33.78
2022-11-08T04:56:01.431Z,35.28
2022-11-08T04:59:11.880Z,34.30
2022-11-08T05:02:15.787Z,35.42
2022-11-08T05:05:20.357Z,37.08
2022-11-08T05:08:23.775Z,37.70
2022-11-08T05:11:29.614Z,37.60
2022-11-08T05:14:34.320Z,37.05
2022-11-08T05:17:37.701Z,38.78
2022-11-08T05:20:58.148Z,36.97
2022-11-08T05:24:03.207Z,36.63
2022-11-08T05:27:06.508Z,36.80
2022-11-08T05:30:11.977Z,38.72
2022-11-08T05:33:15.880Z,36.80
2022-11-08T05:36:19.176Z,36.10
2022-11-08T05:39:32.931Z,36.72
2022-11-08T05:42:36.168Z,38.33
2022-11-08T05:45:40.912Z,38.95
2022-11-08T05:48:44.845Z,37.92
2022-11-08T05:51:48.148Z,39.15
2022-11-08T05:54:51.422Z,41.42
2022-11-08T05:57:54.899Z,40.88
2022-11-08T06:01:03.984Z,41.55
2022-11-08T06:04:07.327Z,41.70
2022-11-08T06:07:10.656Z,39.70
2022-11-08T06:10:14.094Z,41.72
2022-11-08T06:13:17.369Z,42.47
2022-11-08T06:16:23.671Z,42.83
2022-11-08T06:19:26.933Z,42.33
2022-11-08T06:22:32.097Z,42.05
2022-11-08T06:25:35.380Z,42.60
2022-11-08T06:28:38.791Z,43.13
2022-11-08T06:31:43.614Z,43.72
2022-11-08T06:34:47.209Z,42.60
2022-11-08T06:37:50.416Z,52.35
2022-11-08T06:40:53.665Z,44.28
2022-11-08T06:43:56.889Z,42.22
2022-11-08T06:47:01.515Z,43.70
2022-11-08T06:50:05.530Z,39.63
2022-11-08T06:53:10.391Z,38.25
2022-11-08T06:56:13.680Z,37.10
2022-11-08T06:59:16.962Z,36.85
2022-11-08T07:02:21.666Z,35.15
2022-11-08T07:05:25.749Z,32.50
2022-11-08T07:08:29.384Z,34.33
2022-11-08T07:11:32.823Z,33.08
2022-11-08T07:14:36.055Z,34.05
2022-11-08T07:17:40.748Z,31.48
2022-11-08T07:20:44.492Z,30.85
2022-11-08T07:23:48.559Z,29.65
2022-11-08T07:26:52.250Z,28.65
2022-11-08T07:29:55.520Z,29.20
2022-11-08T07:33:00.305Z,27.98
2022-11-08T07:36:04.129Z,28.60
2022-11-08T07:39:07.334Z,26.52
2022-11-08T07:42:10.540Z,26.17
2022-11-08T07:45:14.056Z,26.33
2022-11-08T07:48:18.754Z,24.15
2022-11-08T07:51:22.071Z,24.67
2022-11-08T07:54:25.335Z,25.13
2022-11-08T07:57:28.576Z,24.15
2022-11-08T08:00:32.541Z,25.33
2022-11-08T08:03:37.571Z,29.15
2022-11-08T08:06:40.854Z,24.45
2022-11-08T08:09:44.055Z,22.85
2022-11-08T08:12:47.871Z,22.05
2022-11-08T08:15:51.097Z,22.15
2022-11-08T08:18:56.796Z,20.08
2022-11-08T08:22:00.186Z,22.00
2022-11-08T08:25:03.575Z,20.55
2022-11-08T08:28:07.180Z,19.90
2022-11-08T08:31:10.429Z,20.27
2022-11-08T08:34:15.834Z,21.70
2022-11-08T08:37:19.044Z,19.92
2022-11-08T08:40:22.282Z,19.15
2022-11-08T08:43:27.492Z,18.38
2022-11-08T08:46:30.695Z,18.35
2022-11-08T08:49:35.752Z,18.63
2022-11-08T08:52:40.615Z,18.48
2022-11-08T08:55:43.977Z,18.35
2022-11-08T09:02:11.605Z,17.48
2022-11-08T09:05:16.735Z,18.02
2022-11-08T09:08:19.987Z,16.35
2022-11-08T09:11:23.873Z,17.98
2022-11-08T09:14:27.244Z,16.88
2022-11-08T09:17:31.067Z,15.93
2022-11-08T09:20:35.737Z,16.88
2022-11-08T09:23:41.516Z,16.75
2022-11-08T09:26:44.786Z,16.70
2022-11-08T09:29:48.004Z,15.93
2022-11-08T09:33:00.996Z,16.17
2022-11-08T09:36:07.993Z,15.65
2022-11-08T09:39:11.210Z,15.35
2022-11-08T09:42:41.796Z,32.25
2022-11-08T09:45:47.004Z,15.10
2022-11-08T09:48:51.766Z,14.35
2022-11-08T09:51:56.495Z,12.93
2022-11-08T09:55:15.250Z,13.63
2022-11-08T09:58:27.672Z,13.82
2022-11-08T10:01:33.715Z,13.35
2022-11-08T10:04:38.435Z,12.95
2022-11-08T10:07:49.282Z,12.90
2022-11-08T10:11:16.658Z,12.02
2022-11-08T10:14:34.033Z,14.77
2022-11-08T10:18:09.698Z,13.35
2022-11-08T10:21:21.459Z,10.73
2022-11-08T10:24:35.826Z,9.50
2022-11-08T10:27:41.516Z,9.43
2022-11-08T10:30:48.448Z,9.18
2022-11-08T10:33:54.116Z,9.20
2022-11-08T10:37:04.853Z,8.70
2022-11-08T10:40:22.729Z,8.90
2022-11-08T10:43:33.914Z,9.10
2022-11-08T10:46:44.145Z,8.90
2022-11-08T10:52:58.331Z,8.27
2022-11-08T10:56:05.001Z,7.80
2022-11-08T10:59:30.981Z,7.85
2022-11-08T11:02:36.612Z,7.22
2022-11-08T11:05:43.561Z,7.03
2022-11-08T11:08:50.922Z,7.63
2022-11-08T11:11:59.811Z,7.88
2022-11-08T11:15:05.333Z,7.68
2022-11-08T11:18:22.945Z,11.73
2022-11-08T11:21:26.592Z,9.27
2022-11-08T11:24:29.898Z,8.05
2022-11-08T11:27:37.730Z,7.60
2022-11-08T11:30:42.192Z,8.23
2022-11-08T11:33:47.277Z,7.57
2022-11-08T11:36:56.292Z,7.05
2022-11-08T11:40:07.490Z,7.40
2022-11-08T11:43:17.740Z,8.07
2022-11-08T11:49:29.150Z,7.25
2022-11-08T11:52:32.971Z,8.32
2022-11-08T11:55:48.840Z,9.10
2022-11-08T11:59:33.824Z,8.85
2022-11-08T12:03:14.355Z,8.75
2022-11-08T12:06:29.668Z,7.97
2022-11-08T12:09:45.145Z,8.75
2022-11-08T12:13:00.005Z,8.48
2022-11-08T12:16:11.350Z,7.38
2022-11-08T12:19:33.193Z,7.40
2022-11-08T12:22:49.244Z,7.93
2022-11-08T12:26:00.642Z,7.63
2022-11-08T12:29:17.929Z,7.93
2022-11-08T12:32:34.575Z,7.78
2022-11-08T12:35:48.442Z,8.48
2022-11-08T12:39:02.955Z,7.60
2022-11-08T12:42:25.403Z,7.93
2022-11-08T12:45:49.836Z,7.47
2022-11-08T12:49:13.970Z,8.18
2022-11-08T12:52:33.697Z,8.23
2022-11-08T12:55:38.456Z,7.53
2022-11-08T12:58:46.480Z,7.32
2022-11-08T13:01:51.055Z,7.50
2022-11-08T13:04:58.692Z,7.07
2022-11-08T13:08:12.825Z,6.88
2022-11-08T13:11:23.401Z,6.82
2022-11-08T13:14:27.466Z,6.75
2022-11-08T13:17:32.236Z,7.28
2022-11-08T13:20:40.856Z,7.20
2022-11-08T13:23:45.428Z,8.02
2022-11-08T13:26:50.125Z,8.18
2022-11-08T13:29:54.435Z,8.23
2022-11-08T13:33:05.501Z,7.05
2022-11-08T13:36:22.341Z,6.93
2022-11-08T13:39:41.618Z,6.65
2022-11-08T13:43:00.092Z,6.60
2022-11-08T13:46:40.718Z,6.57
2022-11-08T13:49:43.998Z,7.00
2022-11-08T13:53:02.218Z,7.20
2022-11-08T13:56:42.296Z,7.07
2022-11-08T13:59:56.060Z,7.35
2022-11-08T14:02:59.306Z,7.18
2022-11-08T14:06:08.402Z,7.30
2022-11-08T14:09:23.215Z,7.20
2022-11-08T14:12:35.355Z,7.72
2022-11-08T14:15:46.635Z,8.18
2022-11-08T14:18:50.032Z,9.10
2022-11-08T14:21:56.313Z,8.90
2022-11-08T14:25:09.732Z,9.65
2022-11-08T14:28:29.612Z,11.20
2022-11-08T14:31:34.884Z,11.77
2022-11-08T14:34:39.261Z,11.32
2022-11-08T14:37:44.956Z,11.30
2022-11-08T14:40:54.131Z,10.88
2022-11-08T14:44:01.681Z,12.20
2022-11-08T14:47:05.681Z,16.77
2022-11-08T14:50:17.648Z,11.55
2022-11-08T14:53:24.524Z,12.77
2022-11-08T14:56:37.021Z,11.80
2022-11-08T14:59:43.141Z,14.05
2022-11-08T15:02:49.625Z,15.98
2022-11-08T15:05:57.454Z,14.10
2022-11-08T15:09:01.536Z,14.50
2022-11-08T15:12:07.787Z,16.55
2022-11-08T15:15:23.310Z,17.52
2022-11-08T15:18:28.574Z,16.30
2022-11-08T15:21:32.901Z,15.95
2022-11-08T15:24:38.610Z,16.02
2022-11-08T15:27:47.824Z,16.67
2022-11-08T15:30:57.327Z,19.02
2022-11-08T15:34:00.809Z,23.73
2022-11-08T15:37:04.244Z,30.60
2022-11-08T15:40:18.733Z,27.95
2022-11-08T15:43:37.642Z,31.67
2022-11-08T15:46:43.184Z,32.03
2022-11-08T15:49:46.429Z,34.05
2022-11-08T15:52:51.537Z,31.33
2022-11-08T15:55:57.937Z,35.85
2022-11-08T15:59:01.378Z,46.92
2022-11-08T16:02:14.877Z,44.63
2022-11-08T16:05:21.364Z,46.83
2022-11-08T16:08:26.238Z,44.25
2022-11-08T16:11:30.081Z,42.83
2022-11-08T16:14:33.470Z,40.20
2022-11-08T16:17:38.118Z,46.80
2022-11-08T16:20:41.565Z,53.58
2022-11-08T16:23:44.911Z,91.32
2022-11-08T16:26:49.477Z,62.45
2022-11-08T16:29:52.866Z,56.00
2022-11-08T16:32:58.509Z,91.97
2022-11-08T16:36:03.713Z,96.30
2022-11-08T16:39:12.045Z,59.28
2022-11-08T16:42:15.426Z,46.88
2022-11-08T16:45:37.262Z,70.15
2022-11-08T16:48:50.539Z,65.03
2022-11-08T16:51:54.189Z,71.57
2022-11-08T16:54:57.860Z,53.85
2022-11-08T16:58:01.114Z,43.92
2022-11-08T17:01:10.252Z,42.83
2022-11-08T17:04:15.361Z,39.23
2022-11-08T17:07:18.658Z,39.25
2022-11-08T17:10:24.119Z,40.20
2022-11-08T17:13:28.360Z,41.30
2022-11-08T17:16:31.804Z,39.33
2022-11-08T17:19:38.190Z,45.35
2022-11-08T17:22:42.440Z,44.92
2022-11-08T17:25:48.520Z,44.72
2022-11-08T17:28:55.544Z,47.45
2022-11-08T17:31:58.977Z,48.90
2022-11-08T17:35:13.805Z,50.80
2022-11-08T17:38:18.090Z,68.25
2022-11-08T17:41:21.619Z,55.83
2022-11-08T17:44:27.224Z,58.25
2022-11-08T17:47:30.764Z,64.57
2022-11-08T17:50:35.455Z,48.83
2022-11-08T17:53:39.180Z,50.05
2022-11-08T17:56:42.763Z,98.25
2022-11-08T17:59:48.141Z,127.63
2022-11-08T18:02:51.496Z,95.30
2022-11-08T18:05:57.819Z,162.23
2022-11-08T18:09:01.553Z,164.50
2022-11-08T18:12:05.323Z,146.57
2022-11-08T18:15:09.859Z,158.90
2022-11-08T18:18:13.978Z,332.58
2022-11-08T18:21:20.043Z,184.02
2022-11-08T18:24:24.395Z,113.65
2022-11-08T18:27:28.058Z,242.60
2022-11-08T18:30:31.828Z,304.60
2022-11-08T18:33:36.406Z,165.05
2022-11-08T18:36:43.387Z,87.50
2022-11-08T18:39:46.784Z,62.58
2022-11-08T18:42:50.532Z,62.30
2022-11-08T18:45:54.985Z,69.22
2022-11-08T18:48:58.412Z,44.50
2022-11-08T18:52:03.195Z,39.58
2022-11-08T18:55:07.361Z,51.58
2022-11-08T18:58:10.679Z,46.90
2022-11-08T19:01:14.916Z,39.88
2022-11-08T19:04:18.461Z,46.65
2022-11-08T19:07:24.299Z,43.10
2022-11-08T19:10:27.697Z,42.70
2022-11-08T19:13:32.433Z,43.13
2022-11-08T19:16:36.816Z,38.88
2022-11-08T19:19:40.236Z,50.83
2022-11-08T19:22:45.061Z,41.53
2022-11-08T19:25:55.251Z,61.60
2022-11-08T19:29:00.140Z,61.63
2022-11-08T19:32:03.572Z,62.92
2022-11-08T19:35:08.419Z,65.38
2022-11-08T19:38:15.463Z,63.85
2022-11-08T19:41:21.044Z,91.65
2022-11-08T19:44:25.760Z,66.40
2022-11-08T19:47:29.489Z,56.25
2022-11-08T19:50:32.896Z,52.35
2022-11-08T19:53:38.342Z,59.95
2022-11-08T20:00:06.262Z,66.03
2022-11-08T20:03:15.717Z,64.47
2022-11-08T20:06:27.884Z,69.47
2022-11-08T20:09:35.814Z,72.25
2022-11-08T20:12:39.885Z,59.08
2022-11-08T20:15:43.668Z,64.15
2022-11-08T20:18:47.770Z,65.05
2022-11-08T20:21:51.601Z,66.65
2022-11-08T20:24:58.682Z,67.20
2022-11-08T20:28:02.049Z,67.32
2022-11-08T20:31:09.337Z,60.75
2022-11-08T20:34:13.513Z,69.72
2022-11-08T20:37:16.959Z,61.00
2022-11-08T20:40:22.979Z,49.75
2022-11-08T20:43:26.381Z,57.15
2022-11-08T20:46:29.864Z,55.22
2022-11-08T20:49:33.377Z,64.00
2022-11-08T20:52:36.751Z,58.30
2022-11-08T20:55:41.971Z,53.25
2022-11-08T20:58:47.273Z,47.47
2022-11-08T21:01:50.692Z,47.97
2022-11-08T21:04:54.239Z,49.00
2022-11-08T21:11:23.047Z,42.92
2022-11-08T21:14:26.828Z,41.85
2022-11-08T21:17:31.114Z,41.78
2022-11-08T21:20:37.024Z,41.00
2022-11-08T21:23:42.033Z,43.42
2022-11-08T21:26:46.761Z,44.60
2022-11-08T21:29:50.080Z,43.85
2022-11-08T21:32:53.397Z,92.32
2022-11-08T21:35:58.684Z,65.80
2022-11-08T21:39:02.210Z,57.65
2022-11-08T21:42:07.016Z,50.63
2022-11-08T21:45:11.185Z,49.10
2022-11-08T21:48:16.053Z,62.35
2022-11-08T21:51:19.375Z,52.95
2022-11-08T21:54:23.235Z,58.80
2022-11-08T21:57:27.988Z,53.78
2022-11-08T22:00:32.562Z,57.25
2022-11-08T22:03:36.676Z,50.53
2022-11-08T22:06:44.900Z,61.15
2022-11-08T22:09:52.011Z,75.03
2022-11-08T22:12:56.763Z,72.45
2022-11-08T22:16:00.215Z,65.97
2022-11-08T22:19:05.258Z,91.43
2022-11-08T22:22:09.851Z,61.17
2022-11-08T22:25:13.249Z,60.20
2022-11-08T22:28:18.588Z,72.63
2022-11-08T22:31:22.156Z,62.38
2022-11-08T22:34:25.421Z,58.00
2022-11-08T22:37:28.742Z,68.22
2022-11-08T22:40:32.057Z,53.35
2022-11-08T22:43:36.978Z,59.03
2022-11-08T22:46:40.557Z,56.78
2022-11-08T22:49:45.101Z,57.45
2022-11-08T22:52:49.765Z,75.40
2022-11-08T22:55:53.078Z,67.55
2022-11-08T22:58:57.800Z,62.92
2022-11-08T23:02:01.072Z,62.47
2022-11-08T23:05:04.553Z,58.72
2022-11-08T23:08:07.909Z,61.28
2022-11-08T23:11:29.232Z,56.03
2022-11-08T23:14:51.564Z,57.00
2022-11-08T23:17:55.836Z,53.17
2022-11-08T23:21:16.599Z,55.42
2022-11-08T23:24:22.659Z,57.15
2022-11-08T23:27:44.573Z,61.03
2022-11-08T23:31:06.609Z,57.72
2022-11-08T23:34:10.145Z,55.17
2022-11-08T23:37:13.584Z,57.97
2022-11-08T23:40:35.962Z,58.22
2022-11-08T23:43:56.365Z,58.58
2022-11-08T23:50:06.455Z,62.88
2022-11-08T23:53:09.737Z,58.10
2022-11-08T23:56:20.359Z,56.90
2022-11-08T23:59:23.712Z,60.35
